createdAt,value
2016-05-01T00:00:15.447Z,0
2016-05-01T00:01:15.278Z,0
2016-05-01T00:02:15.437Z,0
2016-05-01T00:03:15.439Z,0
2016-05-01T00:04:15.270Z,0
2016-05-01T00:05:15.491Z,0
2016-05-01T00:06:17.558Z,0
2016-05-01T00:07:16.404Z,0
2016-05-01T00:08:15.796Z,0
2016-05-01T00:10:15.239Z,0
2016-05-01T00:11:29.558Z,0
2016-05-01T00:12:15.402Z,0
2016-05-01T00:13:15.435Z,0
2016-05-01T00:14:15.469Z,0
2016-05-01T00:15:15.207Z,0
2016-05-01T00:16:16.412Z,0
2016-05-01T00:17:15.352Z,0
2016-05-01T00:18:15.355Z,0
2016-05-01T00:19:15.935Z,0
2016-05-01T00:20:16.438Z,0
2016-05-01T00:21:15.332Z,0
2016-05-01T00:22:15.443Z,0
2016-05-01T00:23:15.321Z,0
2016-05-01T00:24:15.151Z,0
2016-05-01T00:25:15.154Z,0
2016-05-01T00:26:15.298Z,0
2016-05-01T00:27:15.301Z,0
2016-05-01T00:28:15.287Z,0
2016-05-01T00:29:15.290Z,0
2016-05-01T00:30:15.122Z,0
2016-05-01T00:31:15.109Z,0
2016-05-01T00:32:15.268Z,0
2016-05-01T00:33:15.255Z,0
2016-05-01T00:34:15.242Z,0
2016-05-01T00:35:15.104Z,0
2016-05-01T00:36:15.106Z,0
2016-05-01T00:37:15.078Z,0
2016-05-01T00:38:15.221Z,0
2016-05-01T00:39:16.005Z,0
2016-05-01T00:41:16.620Z,0
2016-05-01T00:42:15.185Z,0
2016-05-01T00:43:15.578Z,0
2016-05-01T00:44:15.566Z,0
2016-05-01T00:45:15.193Z,0
2016-05-01T00:46:15.024Z,0
2016-05-01T00:47:15.198Z,0
2016-05-01T00:48:14.858Z,0
2016-05-01T00:49:17.141Z,0
2016-05-01T00:50:15.190Z,0
2016-05-01T00:51:15.006Z,0
2016-05-01T00:52:16.290Z,0
2016-05-01T00:53:15.262Z,0
2016-05-01T00:54:15.280Z,0
2016-05-01T00:55:15.126Z,0
2016-05-01T00:56:14.817Z,0
2016-05-01T00:57:15.116Z,0
2016-05-01T00:58:14.963Z,0
2016-05-01T00:59:14.950Z,0
2016-05-01T01:00:15.093Z,0
2016-05-01T01:01:15.095Z,0
2016-05-01T01:02:15.083Z,0
2016-05-01T01:03:15.070Z,0
2016-05-01T01:04:15.072Z,0
2016-05-01T01:05:15.653Z,0
2016-05-01T01:06:14.905Z,0
2016-05-01T01:07:14.908Z,0
2016-05-01T01:08:14.739Z,0
2016-05-01T01:09:15.039Z,0
2016-05-01T01:10:15.041Z,0
2016-05-01T01:11:15.028Z,0
2016-05-01T01:12:14.875Z,0
2016-05-01T01:13:15.018Z,0
2016-05-01T01:14:15.018Z,0
2016-05-01T01:15:15.004Z,0
2016-05-01T01:16:14.851Z,0
2016-05-01T01:17:14.994Z,0
2016-05-01T01:18:14.981Z,0
2016-05-01T01:19:14.968Z,0
2016-05-01T01:20:14.987Z,0
2016-05-01T01:21:14.973Z,0
2016-05-01T01:22:14.961Z,0
2016-05-01T01:23:14.964Z,0
2016-05-01T01:24:14.794Z,0
2016-05-01T01:25:29.424Z,0
2016-05-01T01:26:15.596Z,0
2016-05-01T01:27:29.977Z,0
2016-05-01T01:28:14.774Z,0
2016-05-01T01:29:15.619Z,0
2016-05-01T01:30:15.170Z,0
2016-05-01T01:31:14.907Z,0
2016-05-01T01:32:15.096Z,0
2016-05-01T01:33:14.912Z,0
2016-05-01T01:34:14.743Z,0
2016-05-01T01:35:16.215Z,0
2016-05-01T01:36:15.624Z,0
2016-05-01T01:37:14.721Z,0
2016-05-01T01:38:15.409Z,0
2016-05-01T01:39:29.243Z,0
2016-05-01T01:40:14.853Z,0
2016-05-01T01:41:14.996Z,0
2016-05-01T01:42:14.843Z,0
2016-05-01T01:43:14.814Z,0
2016-05-01T01:44:14.832Z,0
2016-05-01T01:45:14.819Z,0
2016-05-01T01:46:14.806Z,0
2016-05-01T01:47:14.809Z,0
2016-05-01T01:48:14.640Z,0
2016-05-01T01:49:14.642Z,0
2016-05-01T01:50:14.801Z,0
2016-05-01T01:51:14.633Z,0
2016-05-01T01:52:14.775Z,0
2016-05-01T01:53:14.606Z,0
2016-05-01T01:54:14.608Z,0
2016-05-01T01:55:14.753Z,0
2016-05-01T01:56:14.756Z,0
2016-05-01T01:57:14.742Z,0
2016-05-01T01:59:16.450Z,0
2016-05-01T02:00:15.047Z,0
2016-05-01T02:01:15.910Z,0
2016-05-01T02:02:15.130Z,0
2016-05-01T02:03:15.102Z,0
2016-05-01T02:04:15.043Z,0
2016-05-01T02:05:14.701Z,0
2016-05-01T02:06:14.688Z,0
2016-05-01T02:07:14.518Z,0
2016-05-01T02:08:15.599Z,0
2016-05-01T02:09:15.696Z,0
2016-05-01T02:10:15.137Z,0
2016-05-01T02:11:14.498Z,0
2016-05-01T02:12:14.643Z,0
2016-05-01T02:13:14.800Z,0
2016-05-01T02:14:14.756Z,0
2016-05-01T02:15:14.619Z,0
2016-05-01T02:16:14.309Z,0
2016-05-01T02:17:14.609Z,0
2016-05-01T02:18:14.596Z,0
2016-05-01T02:19:14.442Z,0
2016-05-01T02:20:14.304Z,0
2016-05-01T02:21:14.589Z,0
2016-05-01T02:22:14.575Z,0
2016-05-01T02:23:14.578Z,0
2016-05-01T02:24:14.565Z,0
2016-05-01T02:25:14.583Z,0
2016-05-01T02:26:14.555Z,0
2016-05-01T02:27:14.385Z,0
2016-05-01T02:28:14.544Z,0
2016-05-01T02:29:14.375Z,0
2016-05-01T02:30:14.518Z,0
2016-05-01T02:31:14.505Z,0
2016-05-01T02:32:14.539Z,0
2016-05-01T02:33:14.527Z,0
2016-05-01T02:34:14.482Z,0
2016-05-01T02:35:14.344Z,0
2016-05-01T02:36:14.488Z,0
2016-05-01T02:37:14.474Z,0
2016-05-01T02:38:14.477Z,0
2016-05-01T02:39:14.449Z,0
2016-05-01T02:40:14.468Z,0
2016-05-01T02:41:14.438Z,0
2016-05-01T02:42:14.285Z,0
2016-05-01T02:43:14.429Z,0
2016-05-01T02:44:15.634Z,0
2016-05-01T02:45:14.418Z,0
2016-05-01T02:46:14.248Z,0
2016-05-01T02:47:14.095Z,0
2016-05-01T02:48:14.551Z,0
2016-05-01T02:49:14.428Z,0
2016-05-01T02:50:14.416Z,0
2016-05-01T02:51:14.231Z,0
2016-05-01T02:52:14.437Z,0
2016-05-01T02:53:14.253Z,0
2016-05-01T02:54:14.364Z,4
2016-05-01T02:55:15.211Z,4
2016-05-01T02:56:14.338Z,0
2016-05-01T02:57:14.342Z,0
2016-05-01T02:58:14.938Z,4
2016-05-01T02:59:14.159Z,4
2016-05-01T03:00:14.333Z,4
2016-05-01T03:01:14.305Z,8
2016-05-01T03:02:14.308Z,4
2016-05-01T03:03:14.294Z,4
2016-05-01T03:04:14.282Z,4
2016-05-01T03:05:14.284Z,8
2016-05-01T03:06:14.271Z,8
2016-05-01T03:07:14.118Z,12
2016-05-01T03:08:14.104Z,12
2016-05-01T03:09:14.248Z,12
2016-05-01T03:10:14.095Z,16
2016-05-01T03:11:14.238Z,20
2016-05-01T03:12:14.069Z,20
2016-05-01T03:13:14.229Z,28
2016-05-01T03:14:14.214Z,28
2016-05-01T03:15:14.062Z,32
2016-05-01T03:16:14.048Z,40
2016-05-01T03:17:16.504Z,44
2016-05-01T03:18:15.163Z,52
2016-05-01T03:19:29.653Z,60
2016-05-01T03:20:15.731Z,68
2016-05-01T03:21:15.218Z,72
2016-05-01T03:22:14.158Z,80
2016-05-01T03:23:14.520Z,92
2016-05-01T03:24:14.164Z,104
2016-05-01T03:25:14.150Z,120
2016-05-01T03:26:13.997Z,140
2016-05-01T03:27:14.578Z,160
2016-05-01T03:28:14.128Z,180
2016-05-01T03:29:15.239Z,204
2016-05-01T03:30:13.945Z,224
2016-05-01T03:31:14.105Z,244
2016-05-01T03:32:14.483Z,268
2016-05-01T03:33:14.360Z,292
2016-05-01T03:34:13.925Z,316
2016-05-01T03:35:14.053Z,340
2016-05-01T03:36:13.915Z,368
2016-05-01T03:37:13.918Z,396
2016-05-01T03:38:14.046Z,424
2016-05-01T03:39:13.735Z,452
2016-05-01T03:40:14.035Z,488
2016-05-01T03:41:13.882Z,528
2016-05-01T03:42:14.009Z,572
2016-05-01T03:43:14.012Z,620
2016-05-01T03:44:13.858Z,664
2016-05-01T03:45:14.001Z,712
2016-05-01T03:46:13.832Z,756
2016-05-01T03:47:13.835Z,804
2016-05-01T03:48:13.993Z,864
2016-05-01T03:49:13.996Z,928
2016-05-01T03:50:13.670Z,1000
2016-05-01T03:51:13.986Z,1080
2016-05-01T03:52:13.958Z,1148
2016-05-01T03:53:13.945Z,1204
2016-05-01T03:54:13.792Z,1260
2016-05-01T03:55:13.779Z,1340
2016-05-01T03:56:13.922Z,1424
2016-05-01T03:57:13.925Z,1528
2016-05-01T03:58:13.912Z,1632
2016-05-01T03:59:13.914Z,1740
2016-05-01T04:00:13.745Z,1848
2016-05-01T04:01:13.888Z,1956
2016-05-01T04:02:13.891Z,2060
2016-05-01T04:03:15.472Z,2164
2016-05-01T04:04:28.055Z,2240
2016-05-01T04:05:14.774Z,2276
2016-05-01T04:06:14.073Z,2356
2016-05-01T04:07:14.201Z,2460
2016-05-01T04:08:13.844Z,2560
2016-05-01T04:09:13.691Z,2628
2016-05-01T04:10:13.990Z,2640
2016-05-01T04:11:13.884Z,2628
2016-05-01T04:12:13.808Z,2644
2016-05-01T04:13:13.811Z,2688
2016-05-01T04:14:14.205Z,2700
2016-05-01T04:15:14.145Z,2712
2016-05-01T04:16:28.462Z,2668
2016-05-01T04:17:13.790Z,2620
2016-05-01T04:18:13.637Z,2620
2016-05-01T04:19:13.968Z,2696
2016-05-01T04:20:13.767Z,2808
2016-05-01T04:21:13.770Z,2968
2016-05-01T04:22:13.617Z,3200
2016-05-01T04:23:13.744Z,3512
2016-05-01T04:24:13.747Z,3852
2016-05-01T04:25:13.749Z,4180
2016-05-01T04:26:13.580Z,4384
2016-05-01T04:27:13.583Z,4364
2016-05-01T04:28:13.711Z,4300
2016-05-01T04:29:13.558Z,4104
2016-05-01T04:30:13.717Z,4004
2016-05-01T04:31:13.688Z,4056
2016-05-01T04:32:13.706Z,4180
2016-05-01T04:33:13.694Z,4408
2016-05-01T04:34:13.696Z,4712
2016-05-01T04:35:13.699Z,5112
2016-05-01T04:36:15.639Z,5508
2016-05-01T04:37:13.672Z,5956
2016-05-01T04:38:13.675Z,6280
2016-05-01T04:39:13.662Z,6464
2016-05-01T04:40:14.118Z,6080
2016-05-01T04:41:13.511Z,6300
2016-05-01T04:42:13.654Z,6536
2016-05-01T04:43:13.641Z,6568
2016-05-01T04:44:13.488Z,7012
2016-05-01T04:45:15.193Z,7428
2016-05-01T04:46:13.634Z,7628
2016-05-01T04:47:15.074Z,7620
2016-05-01T04:48:13.624Z,7524
2016-05-01T04:49:13.487Z,7432
2016-05-01T04:50:13.458Z,7568
2016-05-01T04:51:13.616Z,7492
2016-05-01T04:52:13.604Z,7424
2016-05-01T04:53:13.606Z,7576
2016-05-01T04:54:13.625Z,8064
2016-05-01T04:55:13.440Z,8244
2016-05-01T04:56:13.614Z,8144
2016-05-01T04:57:13.445Z,8024
2016-05-01T04:58:13.431Z,8244
2016-05-01T04:59:13.278Z,8508
2016-05-01T05:00:13.578Z,8896
2016-05-01T05:01:13.408Z,9344
2016-05-01T05:02:13.427Z,9668
2016-05-01T05:03:13.414Z,10156
2016-05-01T05:04:13.417Z,10084
2016-05-01T05:05:13.451Z,10320
2016-05-01T05:06:13.563Z,10700
2016-05-01T05:07:13.410Z,10864
2016-05-01T05:08:13.569Z,10952
2016-05-01T05:09:13.541Z,11000
2016-05-01T05:10:13.543Z,10864
2016-05-01T05:11:13.561Z,10480
2016-05-01T05:12:13.532Z,10168
2016-05-01T05:13:13.551Z,10072
2016-05-01T05:14:13.397Z,10104
2016-05-01T05:15:13.540Z,9996
2016-05-01T05:16:13.527Z,10348
2016-05-01T05:17:13.530Z,10880
2016-05-01T05:18:13.532Z,11108
2016-05-01T05:19:13.535Z,11788
2016-05-01T05:20:14.115Z,11992
2016-05-01T05:21:13.228Z,12124
2016-05-01T05:22:13.731Z,12788
2016-05-01T05:23:13.515Z,12832
2016-05-01T05:24:28.096Z,13892
2016-05-01T05:25:13.521Z,14720
2016-05-01T05:26:13.366Z,15552
2016-05-01T05:27:13.760Z,16160
2016-05-01T05:28:13.529Z,16160
2016-05-01T05:29:13.359Z,16992
2016-05-01T05:30:13.362Z,17632
2016-05-01T05:31:13.567Z,17888
2016-05-01T05:32:14.367Z,18688
2016-05-01T05:33:14.433Z,19296
2016-05-01T05:34:14.013Z,19552
2016-05-01T05:35:13.375Z,20224
2016-05-01T05:36:13.363Z,20256
2016-05-01T05:37:13.505Z,20832
2016-05-01T05:38:13.509Z,21280
2016-05-01T05:39:13.355Z,21056
2016-05-01T05:40:13.529Z,20256
2016-05-01T05:41:13.501Z,20992
2016-05-01T05:42:13.504Z,21792
2016-05-01T05:43:13.521Z,21728
2016-05-01T05:44:13.525Z,21984
2016-05-01T05:45:13.512Z,23264
2016-05-01T05:46:13.218Z,23264
2016-05-01T05:47:13.377Z,22336
2016-05-01T05:48:13.066Z,22016
2016-05-01T05:49:13.366Z,22496
2016-05-01T05:50:13.385Z,23200
2016-05-01T05:51:13.247Z,23264
2016-05-01T05:52:13.531Z,23616
2016-05-01T05:53:13.377Z,24288
2016-05-01T05:54:13.551Z,24640
2016-05-01T05:55:14.445Z,25568
2016-05-01T05:56:15.151Z,27200
2016-05-01T05:57:14.809Z,27488
2016-05-01T05:58:13.781Z,26592
2016-05-01T05:59:13.892Z,27008
2016-05-01T06:00:13.567Z,27520
2016-05-01T06:01:13.820Z,27392
2016-05-01T06:02:13.416Z,29536
2016-05-01T06:03:13.575Z,29760
2016-05-01T06:04:13.578Z,28864
2016-05-01T06:05:15.753Z,30208
2016-05-01T06:06:13.584Z,32256
2016-05-01T06:07:14.180Z,31904
2016-05-01T06:08:13.573Z,30944
2016-05-01T06:09:13.452Z,30400
2016-05-01T06:10:13.758Z,30240
2016-05-01T06:11:13.752Z,28544
2016-05-01T06:12:13.806Z,28960
2016-05-01T06:13:13.654Z,23168
2016-05-01T06:14:13.466Z,24032
2016-05-01T06:15:13.640Z,23392
2016-05-01T06:16:13.642Z,23168
2016-05-01T06:17:13.677Z,24896
2016-05-01T06:18:13.663Z,24672
2016-05-01T06:19:13.510Z,25856
2016-05-01T06:20:15.247Z,24960
2016-05-01T06:21:13.672Z,24704
2016-05-01T06:22:13.674Z,23744
2016-05-01T06:23:13.536Z,24384
2016-05-01T06:24:13.539Z,23392
2016-05-01T06:25:13.699Z,22624
2016-05-01T06:26:13.716Z,22240
2016-05-01T06:27:13.719Z,22112
2016-05-01T06:28:13.581Z,21984
2016-05-01T06:29:13.599Z,24064
2016-05-01T06:30:13.743Z,25440
2016-05-01T06:31:13.745Z,27072
2016-05-01T06:32:13.608Z,26624
2016-05-01T06:33:13.595Z,26112
2016-05-01T06:34:13.612Z,26656
2016-05-01T06:35:13.913Z,26496
2016-05-01T06:36:13.775Z,28288
2016-05-01T06:37:13.793Z,28448
2016-05-01T06:38:13.796Z,30144
2016-05-01T06:39:13.814Z,27968
2016-05-01T06:40:15.098Z,30464
2016-05-01T06:41:15.257Z,30560
2016-05-01T06:42:13.807Z,32384
2016-05-01T06:43:14.528Z,34848
2016-05-01T06:44:14.531Z,37728
2016-05-01T06:45:14.142Z,38784
2016-05-01T06:46:14.052Z,38144
2016-05-01T06:47:13.851Z,34912
2016-05-01T06:48:13.853Z,32800
2016-05-01T06:49:13.856Z,33792
2016-05-01T06:50:15.391Z,35872
2016-05-01T06:51:15.312Z,38208
2016-05-01T06:52:14.669Z,39456
2016-05-01T06:53:13.855Z,42624
2016-05-01T06:54:14.260Z,42240
2016-05-01T06:55:14.117Z,48416
2016-05-01T06:56:14.848Z,46848
2016-05-01T06:57:14.163Z,45440
2016-05-01T06:58:14.197Z,51392
2016-05-01T06:59:14.215Z,54208
2016-05-01T07:00:14.250Z,58048
2016-05-01T07:01:14.103Z,56512
2016-05-01T07:02:14.269Z,54784
2016-05-01T07:03:14.291Z,55008
2016-05-01T07:04:14.160Z,57792
2016-05-01T07:05:14.199Z,56480
2016-05-01T07:06:14.174Z,54272
2016-05-01T07:07:14.037Z,55968
2016-05-01T07:08:14.370Z,60832
2016-05-01T07:09:14.375Z,59264
2016-05-01T07:10:14.395Z,54784
2016-05-01T07:11:14.462Z,54592
2016-05-01T07:12:14.245Z,54688
2016-05-01T07:13:14.422Z,57376
2016-05-01T07:14:15.456Z,57216
2016-05-01T07:15:15.131Z,55168
2016-05-01T07:16:14.463Z,53760
2016-05-01T07:17:15.451Z,56256
2016-05-01T07:18:15.062Z,52768
2016-05-01T07:19:15.066Z,54880
2016-05-01T07:20:14.756Z,58144
2016-05-01T07:21:14.760Z,64512
2016-05-01T07:22:14.387Z,68448
2016-05-01T07:23:17.171Z,67584
2016-05-01T07:24:15.674Z,58976
2016-05-01T07:25:16.176Z,56576
2016-05-01T07:26:15.726Z,53568
2016-05-01T07:27:15.244Z,54592
2016-05-01T07:28:14.622Z,56384
2016-05-01T07:29:14.484Z,58656
2016-05-01T07:30:14.831Z,58912
2016-05-01T07:31:14.505Z,58496
2016-05-01T07:32:14.539Z,59136
2016-05-01T07:33:14.698Z,61376
2016-05-01T07:34:14.701Z,62784
2016-05-01T07:35:14.969Z,64928
2016-05-01T07:36:14.737Z,63648
2016-05-01T07:37:14.739Z,63328
2016-05-01T07:38:14.603Z,64832
2016-05-01T07:39:14.777Z,61408
2016-05-01T07:40:14.794Z,64640
2016-05-01T07:41:14.797Z,64320
2016-05-01T07:42:14.816Z,66336
2016-05-01T07:43:14.834Z,68160
2016-05-01T07:44:14.696Z,64992
2016-05-01T07:45:14.699Z,61376
2016-05-01T07:46:14.561Z,66816
2016-05-01T07:47:14.877Z,74976
2016-05-01T07:48:14.910Z,79776
2016-05-01T07:49:14.913Z,69984
2016-05-01T07:50:14.852Z,75040
2016-05-01T07:51:14.949Z,78208
2016-05-01T07:52:14.952Z,79936
2016-05-01T07:53:14.970Z,77024
2016-05-01T07:54:14.988Z,75744
2016-05-01T07:55:15.007Z,76096
2016-05-01T07:56:14.869Z,76000
2016-05-01T07:57:15.028Z,80544
2016-05-01T07:58:14.874Z,84192
2016-05-01T07:59:15.112Z,86880
2016-05-01T08:00:15.880Z,84864
2016-05-01T08:01:15.086Z,78048
2016-05-01T08:02:15.104Z,71232
2016-05-01T08:03:15.809Z,63392
2016-05-01T08:04:15.172Z,61856
2016-05-01T08:05:15.611Z,65280
2016-05-01T08:06:15.162Z,59904
2016-05-01T08:07:15.164Z,54816
2016-05-01T08:08:15.979Z,52576
2016-05-01T08:09:16.342Z,52960
2016-05-01T08:11:15.113Z,53600
2016-05-01T08:12:15.741Z,57120
2016-05-01T08:13:15.649Z,59136
2016-05-01T08:14:15.355Z,57248
2016-05-01T08:15:15.263Z,54560
2016-05-01T08:16:15.297Z,52416
2016-05-01T08:17:15.144Z,54400
2016-05-01T08:18:15.319Z,55296
2016-05-01T08:19:15.165Z,53664
2016-05-01T08:20:16.168Z,51072
2016-05-01T08:21:15.358Z,50400
2016-05-01T08:22:15.205Z,51232
2016-05-01T08:23:15.380Z,52416
2016-05-01T08:24:15.398Z,53152
2016-05-01T08:25:15.400Z,54112
2016-05-01T08:26:15.418Z,56704
2016-05-01T08:27:15.437Z,57728
2016-05-01T08:28:15.283Z,56160
2016-05-01T08:29:15.302Z,51712
2016-05-01T08:30:15.461Z,48896
2016-05-01T08:31:15.479Z,49344
2016-05-01T08:32:16.262Z,49344
2016-05-01T08:34:17.065Z,48384
2016-05-01T08:35:16.037Z,46272
2016-05-01T08:36:16.243Z,38336
2016-05-01T08:37:16.292Z,24160
2016-05-01T08:38:16.686Z,18272
2016-05-01T08:39:15.564Z,17568
2016-05-01T08:40:15.566Z,17280
2016-05-01T08:41:15.427Z,17088
2016-05-01T08:42:17.806Z,16928
2016-05-01T08:43:18.324Z,16736
2016-05-01T08:44:15.451Z,16316
2016-05-01T08:45:15.625Z,16088
2016-05-01T08:46:16.128Z,15940
2016-05-01T08:47:15.928Z,15896
2016-05-01T08:48:15.775Z,15860
2016-05-01T08:49:15.527Z,15880
2016-05-01T08:50:16.171Z,15876
2016-05-01T08:51:15.657Z,15788
2016-05-01T08:52:15.519Z,15680
2016-05-01T08:53:15.679Z,15688
2016-05-01T08:54:15.665Z,15796
2016-05-01T08:55:15.528Z,15952
2016-05-01T08:56:15.687Z,16008
2016-05-01T08:57:15.689Z,16076
2016-05-01T08:58:15.552Z,16164
2016-05-01T08:59:15.695Z,16268
2016-05-01T09:00:15.713Z,16576
2016-05-01T09:01:15.560Z,16800
2016-05-01T09:02:15.546Z,16960
2016-05-01T09:03:15.564Z,17152
2016-05-01T09:04:15.724Z,17344
2016-05-01T09:05:15.726Z,17408
2016-05-01T09:06:15.573Z,17472
2016-05-01T09:07:15.732Z,17536
2016-05-01T09:08:15.719Z,17536
2016-05-01T09:09:15.581Z,17568
2016-05-01T09:10:15.739Z,17760
2016-05-01T09:11:15.586Z,17920
2016-05-01T09:12:15.745Z,18016
2016-05-01T09:13:15.748Z,18144
2016-05-01T09:14:15.750Z,18208
2016-05-01T09:15:15.753Z,18304
2016-05-01T09:16:15.600Z,18432
2016-05-01T09:17:15.759Z,18624
2016-05-01T09:18:17.714Z,18752
2016-05-01T09:19:15.764Z,18848
2016-05-01T09:20:15.970Z,18720
2016-05-01T09:21:15.770Z,18528
2016-05-01T09:22:16.116Z,18432
2016-05-01T09:23:16.029Z,18496
2016-05-01T09:24:16.235Z,18688
2016-05-01T09:25:15.629Z,18848
2016-05-01T09:26:15.615Z,19040
2016-05-01T09:27:17.541Z,19168
2016-05-01T09:28:17.246Z,19200
2016-05-01T09:29:15.640Z,19328
2016-05-01T09:30:16.049Z,19424
2016-05-01T09:31:16.442Z,19424
2016-05-01T09:32:15.538Z,19424
2016-05-01T09:33:16.010Z,19456
2016-05-01T09:34:15.497Z,19488
2016-05-01T09:35:15.890Z,19552
2016-05-01T09:36:15.659Z,19744
2016-05-01T09:37:15.662Z,19872
2016-05-01T09:38:15.680Z,19968
2016-05-01T09:39:15.823Z,19968
2016-05-01T09:40:15.825Z,20032
2016-05-01T09:41:15.688Z,20032
2016-05-01T09:42:15.830Z,20032
2016-05-01T09:43:15.834Z,19936
2016-05-01T09:44:15.853Z,19872
2016-05-01T09:45:15.839Z,19840
2016-05-01T09:46:15.530Z,19776
2016-05-01T09:47:15.860Z,19872
2016-05-01T09:48:15.847Z,19936
2016-05-01T09:49:15.850Z,19936
2016-05-01T09:50:16.071Z,19872
2016-05-01T09:52:17.561Z,19904
2016-05-01T09:53:16.408Z,19744
2016-05-01T09:54:17.082Z,19616
2016-05-01T09:55:16.725Z,19488
2016-05-01T09:56:16.713Z,19456
2016-05-01T09:57:16.637Z,19456
2016-05-01T09:58:16.061Z,19424
2016-05-01T09:59:15.955Z,19392
2016-05-01T10:00:15.896Z,19360
2016-05-01T10:01:17.867Z,19232
2016-05-01T10:02:15.885Z,19104
2016-05-01T10:03:15.747Z,19008
2016-05-01T10:04:16.375Z,18912
2016-05-01T10:05:16.253Z,18752
2016-05-01T10:06:16.317Z,18656
2016-05-01T10:07:15.602Z,18560
2016-05-01T10:08:15.917Z,18464
2016-05-01T10:09:15.981Z,18368
2016-05-01T10:10:15.937Z,18272
2016-05-01T10:11:15.925Z,18112
2016-05-01T10:12:15.912Z,17984
2016-05-01T10:13:15.945Z,17888
2016-05-01T10:14:15.932Z,17856
2016-05-01T10:15:15.795Z,17728
2016-05-01T10:16:15.642Z,17536
2016-05-01T10:17:15.941Z,17408
2016-05-01T10:18:15.944Z,17248
2016-05-01T10:19:15.946Z,17024
2016-05-01T10:20:15.871Z,16832
2016-05-01T10:21:15.811Z,16704
2016-05-01T10:22:15.799Z,16608
2016-05-01T10:23:15.958Z,16576
2016-05-01T10:24:15.975Z,16340
2016-05-01T10:25:15.822Z,16188
2016-05-01T10:26:15.965Z,16092
2016-05-01T10:27:15.983Z,16040
2016-05-01T10:28:15.985Z,16008
2016-05-01T10:29:15.988Z,15968
2016-05-01T10:30:15.835Z,15864
2016-05-01T10:31:15.854Z,15804
2016-05-01T10:32:15.997Z,15812
2016-05-01T10:33:15.999Z,15824
2016-05-01T10:34:16.002Z,15752
2016-05-01T10:35:15.973Z,15724
2016-05-01T10:36:15.851Z,15700
2016-05-01T10:37:30.181Z,15648
2016-05-01T10:38:16.748Z,15564
2016-05-01T10:39:30.235Z,15396
2016-05-01T10:40:16.018Z,15328
2016-05-01T10:41:16.020Z,15260
2016-05-01T10:42:16.211Z,15368
2016-05-01T10:43:15.869Z,15448
2016-05-01T10:44:15.717Z,15564
2016-05-01T10:45:16.032Z,15688
2016-05-01T10:46:17.175Z,15708
2016-05-01T10:47:16.787Z,15744
2016-05-01T10:48:44.789Z,15868
2016-05-01T10:49:29.949Z,15912
2016-05-01T10:50:16.294Z,15968
2016-05-01T10:51:15.891Z,16036
2016-05-01T10:52:16.051Z,16200
2016-05-01T10:53:15.913Z,16480
2016-05-01T10:54:16.056Z,16672
2016-05-01T10:55:16.058Z,16800
2016-05-01T10:56:15.905Z,16928
2016-05-01T10:57:15.907Z,16960
2016-05-01T10:58:15.910Z,17024
2016-05-01T10:59:16.069Z,17088
2016-05-01T11:00:16.071Z,17088
2016-05-01T11:01:15.918Z,17184
2016-05-01T11:02:16.077Z,17344
2016-05-01T11:03:16.080Z,17344
2016-05-01T11:04:16.082Z,17472
2016-05-01T11:05:16.164Z,17568
2016-05-01T11:06:16.088Z,17632
2016-05-01T11:07:15.934Z,17792
2016-05-01T11:08:16.109Z,17984
2016-05-01T11:09:15.940Z,18112
2016-05-01T11:10:19.114Z,18240
2016-05-01T11:11:17.383Z,18432
2016-05-01T11:12:16.104Z,18656
2016-05-01T11:13:16.107Z,18848
2016-05-01T11:14:17.109Z,18976
2016-05-01T11:15:16.737Z,19072
2016-05-01T11:16:16.194Z,19168
2016-05-01T11:17:15.977Z,19264
2016-05-01T11:18:16.120Z,19392
2016-05-01T11:20:17.751Z,19584
2016-05-01T11:21:17.238Z,19584
2016-05-01T11:22:15.975Z,19584
2016-05-01T11:23:17.166Z,19616
2016-05-01T11:24:16.511Z,19616
2016-05-01T11:25:16.374Z,19552
2016-05-01T11:26:16.002Z,19456
2016-05-01T11:27:15.988Z,19328
2016-05-01T11:28:16.147Z,19136
2016-05-01T11:29:16.150Z,19072
2016-05-01T11:30:16.169Z,19040
2016-05-01T11:31:16.155Z,18976
2016-05-01T11:32:16.174Z,18944
2016-05-01T11:33:16.160Z,18912
2016-05-01T11:34:16.163Z,19072
2016-05-01T11:35:16.338Z,19264
2016-05-01T11:36:16.169Z,19360
2016-05-01T11:37:16.187Z,19392
2016-05-01T11:38:16.018Z,19392
2016-05-01T11:39:16.209Z,19456
2016-05-01T11:40:16.039Z,19520
2016-05-01T11:41:16.182Z,19584
2016-05-01T11:42:16.201Z,19520
2016-05-01T11:43:16.203Z,19488
2016-05-01T11:44:16.190Z,19424
2016-05-01T11:45:16.224Z,19360
2016-05-01T11:46:16.211Z,19296
2016-05-01T11:47:16.214Z,19200
2016-05-01T11:48:16.061Z,19136
2016-05-01T11:49:16.063Z,19040
2016-05-01T11:50:16.082Z,18976
2016-05-01T11:51:15.913Z,18880
2016-05-01T11:52:16.071Z,18784
2016-05-01T11:53:16.231Z,18624
2016-05-01T11:54:16.092Z,18496
2016-05-01T11:55:17.736Z,18368
2016-05-01T11:56:17.301Z,18208
2016-05-01T11:57:16.397Z,18048
2016-05-01T11:58:17.103Z,17888
2016-05-01T11:59:16.262Z,17632
2016-05-01T12:00:16.765Z,17440
2016-05-01T12:01:16.408Z,17248
2016-05-01T12:02:16.410Z,17024
2016-05-01T12:03:16.429Z,16736
2016-05-01T12:04:16.135Z,16480
2016-05-01T12:05:30.965Z,16024
2016-05-01T12:06:16.296Z,15848
2016-05-01T12:07:16.283Z,15624
2016-05-01T12:09:16.477Z,15228
2016-05-01T12:10:16.604Z,15080
2016-05-01T12:11:16.154Z,14920
2016-05-01T12:12:16.140Z,14780
2016-05-01T12:13:16.300Z,14664
2016-05-01T12:14:16.303Z,14556
2016-05-01T12:15:16.320Z,14460
2016-05-01T12:16:16.308Z,14368
2016-05-01T12:17:16.310Z,14248
2016-05-01T12:18:16.313Z,14128
2016-05-01T12:19:16.331Z,14016
2016-05-01T12:20:16.350Z,13924
2016-05-01T12:21:16.337Z,13864
2016-05-01T12:22:16.325Z,13808
2016-05-01T12:23:16.342Z,13740
2016-05-01T12:24:16.032Z,13676
2016-05-01T12:25:16.347Z,13612
2016-05-01T12:26:16.350Z,13520
2016-05-01T12:27:16.353Z,13412
2016-05-01T12:28:16.199Z,13348
2016-05-01T12:29:18.702Z,13248
2016-05-01T12:30:16.360Z,13128
2016-05-01T12:31:16.364Z,12996
2016-05-01T12:32:16.366Z,12860
2016-05-01T12:33:17.026Z,12724
2016-05-01T12:34:16.950Z,12588
2016-05-01T12:35:16.577Z,12480
2016-05-01T12:36:16.580Z,12404
2016-05-01T12:37:16.379Z,12388
2016-05-01T12:38:18.039Z,12524
2016-05-01T12:39:17.010Z,12696
2016-05-01T12:40:16.404Z,12952
2016-05-01T12:41:16.687Z,13000
2016-05-01T12:42:16.456Z,12712
2016-05-01T12:43:16.256Z,12700
2016-05-01T12:44:16.258Z,12560
2016-05-01T12:45:16.808Z,12288
2016-05-01T12:46:16.450Z,12288
2016-05-01T12:47:16.422Z,12456
2016-05-01T12:48:16.426Z,12744
2016-05-01T12:49:16.428Z,13184
2016-05-01T12:50:16.118Z,14020
2016-05-01T12:51:16.417Z,14968
2016-05-01T12:52:16.436Z,15528
2016-05-01T12:53:16.438Z,15728
2016-05-01T12:54:16.285Z,15304
2016-05-01T12:55:16.444Z,14604
2016-05-01T12:56:16.447Z,14072
2016-05-01T12:57:16.434Z,13384
2016-05-01T12:58:16.436Z,12984
2016-05-01T12:59:16.298Z,12500
2016-05-01T13:00:16.457Z,12332
2016-05-01T13:01:16.304Z,12296
2016-05-01T13:02:16.307Z,12656
2016-05-01T13:03:16.310Z,13388
2016-05-01T13:04:16.468Z,14712
2016-05-01T13:05:16.330Z,15876
2016-05-01T13:06:16.490Z,16576
2016-05-01T13:07:16.476Z,16416
2016-05-01T13:08:16.323Z,16112
2016-05-01T13:09:16.481Z,15580
2016-05-01T13:10:16.484Z,14732
2016-05-01T13:11:16.471Z,13976
2016-05-01T13:12:16.490Z,13412
2016-05-01T13:13:16.336Z,12492
2016-05-01T13:14:31.011Z,12228
2016-05-01T13:15:17.044Z,12064
2016-05-01T13:16:16.500Z,11680
2016-05-01T13:17:16.347Z,11220
2016-05-01T13:18:16.350Z,10760
2016-05-01T13:19:16.961Z,10468
2016-05-01T13:20:16.511Z,10376
2016-05-01T13:21:17.295Z,10476
2016-05-01T13:22:16.610Z,10620
2016-05-01T13:23:16.363Z,10752
2016-05-01T13:24:18.178Z,11004
2016-05-01T13:25:17.978Z,11436
2016-05-01T13:26:17.027Z,12116
2016-05-01T13:27:16.530Z,13008
2016-05-01T13:28:16.532Z,14124
2016-05-01T13:29:16.410Z,15036
2016-05-01T13:30:16.538Z,15320